Metar z połowy godziny Komunikat METAR ze strony awiacja.imgw.pl Metar G30 EPKS METAR EPKS 221430Z 23008KT 9999 SCT044 16/06 Q1016 RMK 157 053 3/3=